sensor_id;sensor_type;location;lat;lon;timestamp;P1;durP1;ratioP1;P2;durP2;ratioP2
65368;SDS011;51970;53.484;49.488;2023-04-29T00:00:19;23.05;;;11.70;;
65368;SDS011;51970;53.484;49.488;2023-04-29T00:02:46;23.27;;;11.88;;
65368;SDS011;51970;53.484;49.488;2023-04-29T00:05:13;32.42;;;12.48;;
65368;SDS011;51970;53.484;49.488;2023-04-29T00:07:40;21.00;;;11.23;;
65368;SDS011;51970;53.484;49.488;2023-04-29T00:10:07;34.42;;;11.57;;
65368;SDS011;51970;53.484;49.488;2023-04-29T00:12:34;33.15;;;11.05;;
65368;SDS011;51970;53.484;49.488;2023-04-29T00:15:00;24.75;;;11.32;;
65368;SDS011;51970;53.484;49.488;2023-04-29T00:17:27;20.40;;;12.23;;
65368;SDS011;51970;53.484;49.488;2023-04-29T00:19:53;27.67;;;11.73;;
65368;SDS011;51970;53.484;49.488;2023-04-29T00:22:19;24.13;;;12.65;;
65368;SDS011;51970;53.484;49.488;2023-04-29T00:24:47;23.15;;;11.05;;
65368;SDS011;51970;53.484;49.488;2023-04-29T00:27:13;19.02;;;11.40;;
65368;SDS011;51970;53.484;49.488;2023-04-29T00:29:41;21.33;;;10.63;;
65368;SDS011;51970;53.484;49.488;2023-04-29T00:32:07;28.02;;;11.27;;
65368;SDS011;51970;53.484;49.488;2023-04-29T00:34:33;22.90;;;11.20;;
65368;SDS011;51970;53.484;49.488;2023-04-29T00:37:00;18.52;;;10.27;;
65368;SDS011;51970;53.484;49.488;2023-04-29T00:39:28;25.52;;;11.73;;
65368;SDS011;51970;53.484;49.488;2023-04-29T00:41:54;32.17;;;11.98;;
65368;SDS011;51970;53.484;49.488;2023-04-29T00:44:22;20.58;;;10.75;;
65368;SDS011;51970;53.484;49.488;2023-04-29T00:46:48;25.17;;;10.73;;
65368;SDS011;51970;53.484;49.488;2023-04-29T00:49:15;29.45;;;10.13;;
65368;SDS011;51970;53.484;49.488;2023-04-29T00:51:41;14.63;;;9.43;;
65368;SDS011;51970;53.484;49.488;2023-04-29T00:54:08;17.95;;;8.15;;
65368;SDS011;51970;53.484;49.488;2023-04-29T00:56:36;14.77;;;8.40;;
65368;SDS011;51970;53.484;49.488;2023-04-29T00:59:04;19.33;;;8.20;;
65368;SDS011;51970;53.484;49.488;2023-04-29T01:01:30;13.48;;;6.65;;
65368;SDS011;51970;53.484;49.488;2023-04-29T01:03:57;15.18;;;6.28;;
65368;SDS011;51970;53.484;49.488;2023-04-29T01:09:13;13.63;;;6.20;;
65368;SDS011;51970;53.484;49.488;2023-04-29T01:11:48;13.77;;;7.40;;
65368;SDS011;51970;53.484;49.488;2023-04-29T01:14:20;13.13;;;6.60;;
65368;SDS011;51970;53.484;49.488;2023-04-29T01:16:50;12.25;;;7.32;;
65368;SDS011;51970;53.484;49.488;2023-04-29T01:22:06;13.85;;;8.55;;
65368;SDS011;51970;53.484;49.488;2023-04-29T01:24:32;15.38;;;7.45;;
65368;SDS011;51970;53.484;49.488;2023-04-29T01:27:13;15.63;;;6.30;;
65368;SDS011;51970;53.484;49.488;2023-04-29T01:29:55;17.92;;;6.40;;
65368;SDS011;51970;53.484;49.488;2023-04-29T01:32:45;19.13;;;8.43;;
65368;SDS011;51970;53.484;49.488;2023-04-29T01:39:26;15.85;;;7.70;;
65368;SDS011;51970;53.484;49.488;2023-04-29T01:41:33;15.00;;;8.32;;
65368;SDS011;51970;53.484;49.488;2023-04-29T01:44:09;15.57;;;5.88;;
65368;SDS011;51970;53.484;49.488;2023-04-29T01:46:41;11.65;;;6.25;;
65368;SDS011;51970;53.484;49.488;2023-04-29T01:49:10;13.88;;;6.38;;
65368;SDS011;51970;53.484;49.488;2023-04-29T01:51:37;11.30;;;5.68;;
65368;SDS011;51970;53.484;49.488;2023-04-29T01:54:04;14.00;;;5.68;;
65368;SDS011;51970;53.484;49.488;2023-04-29T01:56:30;10.65;;;5.38;;
65368;SDS011;51970;53.484;49.488;2023-04-29T01:58:56;10.73;;;5.28;;
65368;SDS011;51970;53.484;49.488;2023-04-29T02:01:22;12.73;;;5.30;;
65368;SDS011;51970;53.484;49.488;2023-04-29T02:03:48;10.23;;;4.70;;
65368;SDS011;51970;53.484;49.488;2023-04-29T02:06:14;8.82;;;4.53;;
65368;SDS011;51970;53.484;49.488;2023-04-29T02:08:40;15.18;;;5.75;;
65368;SDS011;51970;53.484;49.488;2023-04-29T02:11:08;13.65;;;4.97;;
65368;SDS011;51970;53.484;49.488;2023-04-29T02:13:35;11.68;;;4.90;;
65368;SDS011;51970;53.484;49.488;2023-04-29T02:16:11;14.38;;;4.13;;
65368;SDS011;51970;53.484;49.488;2023-04-29T02:18:38;8.88;;;4.63;;
65368;SDS011;51970;53.484;49.488;2023-04-29T02:21:05;9.45;;;4.05;;
65368;SDS011;51970;53.484;49.488;2023-04-29T02:23:33;13.52;;;4.95;;
65368;SDS011;51970;53.484;49.488;2023-04-29T02:26:00;12.98;;;3.47;;
65368;SDS011;51970;53.484;49.488;2023-04-29T02:28:29;10.30;;;5.88;;
65368;SDS011;51970;53.484;49.488;2023-04-29T02:30:55;19.08;;;4.90;;
65368;SDS011;51970;53.484;49.488;2023-04-29T02:33:22;7.97;;;4.03;;
65368;SDS011;51970;53.484;49.488;2023-04-29T02:35:48;21.25;;;6.15;;
65368;SDS011;51970;53.484;49.488;2023-04-29T02:38:14;15.80;;;4.68;;
65368;SDS011;51970;53.484;49.488;2023-04-29T02:40:43;20.10;;;5.65;;
65368;SDS011;51970;53.484;49.488;2023-04-29T02:43:10;12.30;;;4.32;;
65368;SDS011;51970;53.484;49.488;2023-04-29T02:45:37;11.68;;;4.15;;
65368;SDS011;51970;53.484;49.488;2023-04-29T02:48:04;16.52;;;4.32;;
65368;SDS011;51970;53.484;49.488;2023-04-29T02:50:31;11.00;;;3.22;;
65368;SDS011;51970;53.484;49.488;2023-04-29T02:52:57;16.73;;;3.65;;
65368;SDS011;51970;53.484;49.488;2023-04-29T02:55:23;13.18;;;4.47;;
65368;SDS011;51970;53.484;49.488;2023-04-29T02:57:51;11.20;;;3.65;;
65368;SDS011;51970;53.484;49.488;2023-04-29T03:00:17;17.60;;;4.53;;
65368;SDS011;51970;53.484;49.488;2023-04-29T03:02:47;13.00;;;3.92;;
65368;SDS011;51970;53.484;49.488;2023-04-29T03:05:14;17.10;;;4.25;;
65368;SDS011;51970;53.484;49.488;2023-04-29T03:07:40;11.80;;;4.70;;
65368;SDS011;51970;53.484;49.488;2023-04-29T03:10:13;12.07;;;4.05;;
65368;SDS011;51970;53.484;49.488;2023-04-29T03:12:45;15.48;;;3.08;;
65368;SDS011;51970;53.484;49.488;2023-04-29T03:15:13;8.00;;;3.40;;
65368;SDS011;51970;53.484;49.488;2023-04-29T03:17:42;8.77;;;3.22;;
65368;SDS011;51970;53.484;49.488;2023-04-29T03:20:10;13.45;;;4.47;;
65368;SDS011;51970;53.484;49.488;2023-04-29T03:22:37;12.68;;;3.97;;
65368;SDS011;51970;53.484;49.488;2023-04-29T03:25:03;10.63;;;3.78;;
65368;SDS011;51970;53.484;49.488;2023-04-29T03:27:31;11.07;;;4.18;;
65368;SDS011;51970;53.484;49.488;2023-04-29T03:30:00;15.48;;;3.75;;
65368;SDS011;51970;53.484;49.488;2023-04-29T03:32:27;8.27;;;3.53;;
65368;SDS011;51970;53.484;49.488;2023-04-29T03:34:53;8.27;;;4.05;;
65368;SDS011;51970;53.484;49.488;2023-04-29T03:37:20;11.60;;;3.60;;
65368;SDS011;51970;53.484;49.488;2023-04-29T03:39:46;9.85;;;3.83;;
65368;SDS011;51970;53.484;49.488;2023-04-29T03:42:12;15.48;;;4.28;;
65368;SDS011;51970;53.484;49.488;2023-04-29T03:44:41;14.70;;;3.58;;
65368;SDS011;51970;53.484;49.488;2023-04-29T03:47:10;10.98;;;4.15;;
65368;SDS011;51970;53.484;49.488;2023-04-29T03:49:39;10.90;;;3.10;;
65368;SDS011;51970;53.484;49.488;2023-04-29T03:52:07;9.40;;;3.70;;
65368;SDS011;51970;53.484;49.488;2023-04-29T03:54:37;13.82;;;4.50;;
65368;SDS011;51970;53.484;49.488;2023-04-29T03:57:04;13.63;;;3.80;;
65368;SDS011;51970;53.484;49.488;2023-04-29T03:59:30;19.15;;;3.92;;
65368;SDS011;51970;53.484;49.488;2023-04-29T04:01:57;12.38;;;3.72;;
65368;SDS011;51970;53.484;49.488;2023-04-29T04:04:25;10.63;;;3.63;;
65368;SDS011;51970;53.484;49.488;2023-04-29T04:06:51;42.85;;;5.15;;
65368;SDS011;51970;53.484;49.488;2023-04-29T04:09:24;13.32;;;3.90;;
65368;SDS011;51970;53.484;49.488;2023-04-29T04:11:50;13.93;;;3.40;;
65368;SDS011;51970;53.484;49.488;2023-04-29T04:14:21;17.70;;;3.42;;
65368;SDS011;51970;53.484;49.488;2023-04-29T04:16:49;10.57;;;3.65;;
65368;SDS011;51970;53.484;49.488;2023-04-29T04:19:21;13.77;;;3.92;;
65368;SDS011;51970;53.484;49.488;2023-04-29T04:21:51;18.83;;;3.92;;
65368;SDS011;51970;53.484;49.488;2023-04-29T04:24:18;9.65;;;3.17;;
65368;SDS011;51970;53.484;49.488;2023-04-29T04:26:50;15.63;;;3.97;;
65368;SDS011;51970;53.484;49.488;2023-04-29T04:29:20;14.45;;;4.07;;
65368;SDS011;51970;53.484;49.488;2023-04-29T04:32:11;8.10;;;3.28;;
65368;SDS011;51970;53.484;49.488;2023-04-29T04:34:43;9.02;;;4.57;;
65368;SDS011;51970;53.484;49.488;2023-04-29T04:37:19;11.23;;;4.00;;
65368;SDS011;51970;53.484;49.488;2023-04-29T04:39:48;10.10;;;3.35;;
65368;SDS011;51970;53.484;49.488;2023-04-29T04:42:14;11.20;;;3.80;;
65368;SDS011;51970;53.484;49.488;2023-04-29T04:44:41;11.48;;;4.20;;
65368;SDS011;51970;53.484;49.488;2023-04-29T04:47:08;10.98;;;3.45;;
65368;SDS011;51970;53.484;49.488;2023-04-29T04:49:37;10.43;;;2.28;;
65368;SDS011;51970;53.484;49.488;2023-04-29T04:52:05;8.57;;;3.45;;
65368;SDS011;51970;53.484;49.488;2023-04-29T04:54:53;16.52;;;3.33;;
65368;SDS011;51970;53.484;49.488;2023-04-29T04:57:19;10.00;;;2.78;;
65368;SDS011;51970;53.484;49.488;2023-04-29T04:59:46;13.27;;;3.10;;
65368;SDS011;51970;53.484;49.488;2023-04-29T05:02:16;14.15;;;3.90;;
65368;SDS011;51970;53.484;49.488;2023-04-29T05:04:43;7.65;;;4.18;;
65368;SDS011;51970;53.484;49.488;2023-04-29T05:07:12;7.35;;;3.50;;
65368;SDS011;51970;53.484;49.488;2023-04-29T05:09:38;13.48;;;3.28;;
65368;SDS011;51970;53.484;49.488;2023-04-29T05:12:04;8.70;;;3.30;;
65368;SDS011;51970;53.484;49.488;2023-04-29T05:14:31;6.05;;;2.35;;
65368;SDS011;51970;53.484;49.488;2023-04-29T05:16:57;29.42;;;4.00;;
65368;SDS011;51970;53.484;49.488;2023-04-29T05:19:34;9.02;;;2.78;;
65368;SDS011;51970;53.484;49.488;2023-04-29T05:22:04;9.95;;;2.70;;
65368;SDS011;51970;53.484;49.488;2023-04-29T05:24:30;6.75;;;2.47;;
65368;SDS011;51970;53.484;49.488;2023-04-29T05:26:57;8.57;;;3.38;;
65368;SDS011;51970;53.484;49.488;2023-04-29T05:29:23;8.45;;;2.90;;
65368;SDS011;51970;53.484;49.488;2023-04-29T05:31:52;8.93;;;3.83;;
65368;SDS011;51970;53.484;49.488;2023-04-29T05:34:20;7.63;;;3.30;;
65368;SDS011;51970;53.484;49.488;2023-04-29T05:36:46;6.28;;;2.00;;
65368;SDS011;51970;53.484;49.488;2023-04-29T05:39:12;10.80;;;2.63;;
65368;SDS011;51970;53.484;49.488;2023-04-29T05:41:40;8.27;;;2.88;;
65368;SDS011;51970;53.484;49.488;2023-04-29T05:44:09;12.90;;;2.88;;
65368;SDS011;51970;53.484;49.488;2023-04-29T05:46:44;21.73;;;3.38;;
65368;SDS011;51970;53.484;49.488;2023-04-29T05:49:14;8.73;;;2.78;;
65368;SDS011;51970;53.484;49.488;2023-04-29T05:51:45;7.00;;;2.38;;
65368;SDS011;51970;53.484;49.488;2023-04-29T05:54:14;10.55;;;2.65;;
65368;SDS011;51970;53.484;49.488;2023-04-29T05:56:42;21.05;;;3.05;;
65368;SDS011;51970;53.484;49.488;2023-04-29T05:59:10;12.80;;;2.85;;
65368;SDS011;51970;53.484;49.488;2023-04-29T06:01:46;5.60;;;2.42;;
65368;SDS011;51970;53.484;49.488;2023-04-29T06:04:13;8.90;;;3.28;;
65368;SDS011;51970;53.484;49.488;2023-04-29T06:06:40;7.15;;;2.58;;
65368;SDS011;51970;53.484;49.488;2023-04-29T06:09:06;8.35;;;2.60;;
65368;SDS011;51970;53.484;49.488;2023-04-29T06:11:36;9.70;;;1.63;;
65368;SDS011;51970;53.484;49.488;2023-04-29T06:14:05;11.98;;;2.80;;
65368;SDS011;51970;53.484;49.488;2023-04-29T06:16:36;9.25;;;2.33;;
65368;SDS011;51970;53.484;49.488;2023-04-29T06:19:06;6.15;;;2.50;;
65368;SDS011;51970;53.484;49.488;2023-04-29T06:21:35;16.38;;;3.45;;
65368;SDS011;51970;53.484;49.488;2023-04-29T06:24:04;7.60;;;3.35;;
65368;SDS011;51970;53.484;49.488;2023-04-29T06:26:32;7.80;;;3.10;;
65368;SDS011;51970;53.484;49.488;2023-04-29T06:29:09;14.45;;;3.97;;
65368;SDS011;51970;53.484;49.488;2023-04-29T06:31:35;10.88;;;3.00;;
65368;SDS011;51970;53.484;49.488;2023-04-29T06:34:04;10.80;;;2.63;;
65368;SDS011;51970;53.484;49.488;2023-04-29T06:36:34;11.18;;;2.83;;
65368;SDS011;51970;53.484;49.488;2023-04-29T06:39:04;9.02;;;2.78;;
65368;SDS011;51970;53.484;49.488;2023-04-29T06:41:36;5.78;;;2.50;;
65368;SDS011;51970;53.484;49.488;2023-04-29T06:44:07;8.45;;;2.72;;
65368;SDS011;51970;53.484;49.488;2023-04-29T06:46:34;9.13;;;3.08;;
65368;SDS011;51970;53.484;49.488;2023-04-29T06:49:02;7.55;;;2.88;;
65368;SDS011;51970;53.484;49.488;2023-04-29T06:51:39;5.35;;;2.22;;
65368;SDS011;51970;53.484;49.488;2023-04-29T06:54:10;10.07;;;3.28;;
65368;SDS011;51970;53.484;49.488;2023-04-29T06:56:57;11.63;;;2.60;;
65368;SDS011;51970;53.484;49.488;2023-04-29T06:59:51;8.45;;;2.97;;
65368;SDS011;51970;53.484;49.488;2023-04-29T07:02:36;14.43;;;2.70;;
65368;SDS011;51970;53.484;49.488;2023-04-29T07:05:09;15.60;;;2.97;;
65368;SDS011;51970;53.484;49.488;2023-04-29T07:08:19;11.63;;;2.42;;
65368;SDS011;51970;53.484;49.488;2023-04-29T07:11:54;11.43;;;2.70;;
65368;SDS011;51970;53.484;49.488;2023-04-29T07:14:30;10.68;;;3.42;;
65368;SDS011;51970;53.484;49.488;2023-04-29T07:17:07;12.65;;;3.25;;
65368;SDS011;51970;53.484;49.488;2023-04-29T07:19:40;7.80;;;2.63;;
65368;SDS011;51970;53.484;49.488;2023-04-29T07:22:23;20.80;;;3.38;;
65368;SDS011;51970;53.484;49.488;2023-04-29T07:25:37;17.13;;;2.50;;
65368;SDS011;51970;53.484;49.488;2023-04-29T07:28:50;11.38;;;2.83;;
65368;SDS011;51970;53.484;49.488;2023-04-29T07:31:54;18.10;;;3.22;;
65368;SDS011;51970;53.484;49.488;2023-04-29T07:34:31;6.50;;;2.45;;
65368;SDS011;51970;53.484;49.488;2023-04-29T07:37:25;51.72;;;3.90;;
65368;SDS011;51970;53.484;49.488;2023-04-29T07:39:59;7.95;;;2.75;;
65368;SDS011;51970;53.484;49.488;2023-04-29T07:42:36;11.52;;;2.28;;
65368;SDS011;51970;53.484;49.488;2023-04-29T07:45:27;9.82;;;2.70;;
65368;SDS011;51970;53.484;49.488;2023-04-29T07:47:59;9.75;;;3.20;;
65368;SDS011;51970;53.484;49.488;2023-04-29T07:50:25;13.05;;;2.45;;
65368;SDS011;51970;53.484;49.488;2023-04-29T07:52:53;13.18;;;2.97;;
65368;SDS011;51970;53.484;49.488;2023-04-29T07:55:37;8.02;;;2.55;;
65368;SDS011;51970;53.484;49.488;2023-04-29T07:58:26;7.15;;;2.83;;
65368;SDS011;51970;53.484;49.488;2023-04-29T08:01:05;12.80;;;2.90;;
65368;SDS011;51970;53.484;49.488;2023-04-29T08:03:39;6.43;;;2.63;;
65368;SDS011;51970;53.484;49.488;2023-04-29T08:06:12;15.05;;;2.95;;
65368;SDS011;51970;53.484;49.488;2023-04-29T08:08:41;7.43;;;2.35;;
65368;SDS011;51970;53.484;49.488;2023-04-29T08:11:14;12.82;;;2.85;;
65368;SDS011;51970;53.484;49.488;2023-04-29T08:13:45;11.57;;;2.35;;
65368;SDS011;51970;53.484;49.488;2023-04-29T08:16:13;7.65;;;2.28;;
65368;SDS011;51970;53.484;49.488;2023-04-29T08:18:40;5.93;;;2.38;;
65368;SDS011;51970;53.484;49.488;2023-04-29T08:21:07;9.25;;;2.63;;
65368;SDS011;51970;53.484;49.488;2023-04-29T08:23:37;9.70;;;3.30;;
65368;SDS011;51970;53.484;49.488;2023-04-29T08:26:43;8.32;;;2.85;;
65368;SDS011;51970;53.484;49.488;2023-04-29T08:29:48;7.82;;;2.92;;
65368;SDS011;51970;53.484;49.488;2023-04-29T08:32:18;7.65;;;2.00;;
65368;SDS011;51970;53.484;49.488;2023-04-29T08:34:57;9.73;;;2.88;;
65368;SDS011;51970;53.484;49.488;2023-04-29T08:37:29;6.85;;;3.28;;
65368;SDS011;51970;53.484;49.488;2023-04-29T08:40:44;5.72;;;2.28;;
65368;SDS011;51970;53.484;49.488;2023-04-29T08:43:33;8.82;;;2.90;;
65368;SDS011;51970;53.484;49.488;2023-04-29T08:46:33;6.78;;;2.72;;
65368;SDS011;51970;53.484;49.488;2023-04-29T08:49:33;10.35;;;2.80;;
65368;SDS011;51970;53.484;49.488;2023-04-29T08:52:39;10.18;;;2.50;;
65368;SDS011;51970;53.484;49.488;2023-04-29T08:55:07;12.13;;;3.90;;
65368;SDS011;51970;53.484;49.488;2023-04-29T08:58:07;7.82;;;3.45;;
65368;SDS011;51970;53.484;49.488;2023-04-29T09:00:54;5.63;;;2.80;;
65368;SDS011;51970;53.484;49.488;2023-04-29T09:07:23;7.85;;;2.65;;
65368;SDS011;51970;53.484;49.488;2023-04-29T09:10:35;6.60;;;2.83;;
65368;SDS011;51970;53.484;49.488;2023-04-29T09:13:07;18.48;;;3.10;;
65368;SDS011;51970;53.484;49.488;2023-04-29T09:15:56;7.03;;;2.70;;
65368;SDS011;51970;53.484;49.488;2023-04-29T09:18:50;6.35;;;2.08;;
65368;SDS011;51970;53.484;49.488;2023-04-29T09:21:24;7.82;;;2.53;;
65368;SDS011;51970;53.484;49.488;2023-04-29T09:28:13;7.40;;;1.75;;
65368;SDS011;51970;53.484;49.488;2023-04-29T09:31:25;9.10;;;2.63;;
65368;SDS011;51970;53.484;49.488;2023-04-29T09:34:05;10.52;;;2.25;;
65368;SDS011;51970;53.484;49.488;2023-04-29T09:36:43;10.10;;;3.05;;
65368;SDS011;51970;53.484;49.488;2023-04-29T09:39:45;8.52;;;2.88;;
65368;SDS011;51970;53.484;49.488;2023-04-29T09:43:13;9.73;;;2.50;;
65368;SDS011;51970;53.484;49.488;2023-04-29T09:46:02;8.35;;;1.98;;
65368;SDS011;51970;53.484;49.488;2023-04-29T09:48:46;17.42;;;2.35;;
65368;SDS011;51970;53.484;49.488;2023-04-29T09:51:22;9.57;;;2.53;;
65368;SDS011;51970;53.484;49.488;2023-04-29T09:53:49;7.40;;;2.00;;
65368;SDS011;51970;53.484;49.488;2023-04-29T09:56:18;14.10;;;3.05;;
65368;SDS011;51970;53.484;49.488;2023-04-29T09:59:17;11.13;;;2.85;;
65368;SDS011;51970;53.484;49.488;2023-04-29T10:02:14;18.70;;;3.10;;
65368;SDS011;51970;53.484;49.488;2023-04-29T10:04:53;26.23;;;3.88;;
65368;SDS011;51970;53.484;49.488;2023-04-29T10:07:34;7.93;;;1.50;;
65368;SDS011;51970;53.484;49.488;2023-04-29T10:10:09;7.18;;;2.45;;
65368;SDS011;51970;53.484;49.488;2023-04-29T10:13:25;5.53;;;1.85;;
65368;SDS011;51970;53.484;49.488;2023-04-29T10:17:20;9.00;;;1.92;;
65368;SDS011;51970;53.484;49.488;2023-04-29T10:20:05;13.05;;;2.60;;
65368;SDS011;51970;53.484;49.488;2023-04-29T10:22:48;17.35;;;2.50;;
65368;SDS011;51970;53.484;49.488;2023-04-29T10:25:22;13.45;;;3.38;;
65368;SDS011;51970;53.484;49.488;2023-04-29T10:28:13;6.63;;;1.98;;
65368;SDS011;51970;53.484;49.488;2023-04-29T10:31:02;8.32;;;2.15;;
65368;SDS011;51970;53.484;49.488;2023-04-29T10:33:50;7.18;;;2.40;;
65368;SDS011;51970;53.484;49.488;2023-04-29T10:36:40;10.23;;;2.03;;
65368;SDS011;51970;53.484;49.488;2023-04-29T10:43:21;7.32;;;1.98;;
65368;SDS011;51970;53.484;49.488;2023-04-29T10:46:24;10.05;;;2.60;;
65368;SDS011;51970;53.484;49.488;2023-04-29T10:49:05;9.75;;;2.65;;
65368;SDS011;51970;53.484;49.488;2023-04-29T10:51:52;5.20;;;1.60;;
65368;SDS011;51970;53.484;49.488;2023-04-29T10:54:34;13.38;;;2.60;;
65368;SDS011;51970;53.484;49.488;2023-04-29T10:57:29;8.45;;;2.63;;
65368;SDS011;51970;53.484;49.488;2023-04-29T11:00:27;6.25;;;2.28;;
65368;SDS011;51970;53.484;49.488;2023-04-29T11:03:44;7.82;;;2.42;;
65368;SDS011;51970;53.484;49.488;2023-04-29T11:06:52;8.02;;;2.47;;
65368;SDS011;51970;53.484;49.488;2023-04-29T11:09:24;9.30;;;2.47;;
65368;SDS011;51970;53.484;49.488;2023-04-29T11:12:07;8.50;;;2.65;;
65368;SDS011;51970;53.484;49.488;2023-04-29T11:15:02;6.78;;;1.55;;
65368;SDS011;51970;53.484;49.488;2023-04-29T11:17:48;8.75;;;2.55;;
65368;SDS011;51970;53.484;49.488;2023-04-29T11:21:11;7.70;;;2.35;;
65368;SDS011;51970;53.484;49.488;2023-04-29T11:24:33;8.05;;;2.72;;
65368;SDS011;51970;53.484;49.488;2023-04-29T11:27:35;6.65;;;2.38;;
65368;SDS011;51970;53.484;49.488;2023-04-29T11:30:31;12.38;;;2.58;;
65368;SDS011;51970;53.484;49.488;2023-04-29T11:33:25;7.88;;;2.70;;
65368;SDS011;51970;53.484;49.488;2023-04-29T11:36:42;9.38;;;2.72;;
65368;SDS011;51970;53.484;49.488;2023-04-29T11:39:35;8.20;;;3.33;;
65368;SDS011;51970;53.484;49.488;2023-04-29T11:44:36;6.45;;;2.05;;
65368;SDS011;51970;53.484;49.488;2023-04-29T11:47:15;9.38;;;3.10;;
65368;SDS011;51970;53.484;49.488;2023-04-29T11:49:44;5.97;;;2.35;;
65368;SDS011;51970;53.484;49.488;2023-04-29T11:52:42;8.25;;;3.20;;
65368;SDS011;51970;53.484;49.488;2023-04-29T11:55:48;6.20;;;2.22;;
65368;SDS011;51970;53.484;49.488;2023-04-29T11:58:27;7.45;;;2.38;;
65368;SDS011;51970;53.484;49.488;2023-04-29T12:01:17;10.32;;;3.33;;
65368;SDS011;51970;53.484;49.488;2023-04-29T12:04:02;19.95;;;2.75;;
65368;SDS011;51970;53.484;49.488;2023-04-29T12:07:09;7.47;;;2.38;;
65368;SDS011;51970;53.484;49.488;2023-04-29T12:09:45;7.43;;;2.80;;
65368;SDS011;51970;53.484;49.488;2023-04-29T12:12:39;7.90;;;2.80;;
65368;SDS011;51970;53.484;49.488;2023-04-29T12:15:13;9.80;;;2.72;;
65368;SDS011;51970;53.484;49.488;2023-04-29T12:18:09;6.22;;;2.72;;
65368;SDS011;51970;53.484;49.488;2023-04-29T12:20:56;8.35;;;2.38;;
65368;SDS011;51970;53.484;49.488;2023-04-29T12:26:08;9.85;;;2.95;;
65368;SDS011;51970;53.484;49.488;2023-04-29T12:28:58;10.63;;;3.25;;
65368;SDS011;51970;53.484;49.488;2023-04-29T12:31:33;8.68;;;2.30;;
65368;SDS011;51970;53.484;49.488;2023-04-29T12:34:12;14.73;;;3.75;;
65368;SDS011;51970;53.484;49.488;2023-04-29T12:37:05;9.48;;;2.30;;
65368;SDS011;51970;53.484;49.488;2023-04-29T12:39:40;8.63;;;2.92;;
65368;SDS011;51970;53.484;49.488;2023-04-29T12:42:15;6.55;;;2.83;;
65368;SDS011;51970;53.484;49.488;2023-04-29T12:44:51;5.93;;;2.13;;
65368;SDS011;51970;53.484;49.488;2023-04-29T12:47:22;7.78;;;3.00;;
65368;SDS011;51970;53.484;49.488;2023-04-29T12:50:06;9.30;;;2.97;;
65368;SDS011;51970;53.484;49.488;2023-04-29T12:52:46;7.72;;;2.58;;
65368;SDS011;51970;53.484;49.488;2023-04-29T12:55:17;8.35;;;2.40;;
65368;SDS011;51970;53.484;49.488;2023-04-29T12:57:50;5.88;;;2.70;;
65368;SDS011;51970;53.484;49.488;2023-04-29T13:00:31;9.07;;;2.58;;
65368;SDS011;51970;53.484;49.488;2023-04-29T13:03:04;9.98;;;2.60;;
65368;SDS011;51970;53.484;49.488;2023-04-29T13:05:43;7.82;;;2.42;;
65368;SDS011;51970;53.484;49.488;2023-04-29T13:08:43;9.20;;;2.75;;
65368;SDS011;51970;53.484;49.488;2023-04-29T13:11:40;11.20;;;3.55;;
65368;SDS011;51970;53.484;49.488;2023-04-29T13:14:10;14.65;;;4.13;;
65368;SDS011;51970;53.484;49.488;2023-04-29T13:16:37;8.30;;;2.97;;
65368;SDS011;51970;53.484;49.488;2023-04-29T13:19:29;10.88;;;1.88;;
65368;SDS011;51970;53.484;49.488;2023-04-29T13:22:17;8.38;;;2.95;;
65368;SDS011;51970;53.484;49.488;2023-04-29T13:24:48;11.05;;;3.40;;
65368;SDS011;51970;53.484;49.488;2023-04-29T13:27:15;9.60;;;2.70;;
65368;SDS011;51970;53.484;49.488;2023-04-29T13:29:45;7.20;;;2.42;;
65368;SDS011;51970;53.484;49.488;2023-04-29T13:32:14;8.07;;;3.05;;
65368;SDS011;51970;53.484;49.488;2023-04-29T13:34:54;12.73;;;3.15;;
65368;SDS011;51970;53.484;49.488;2023-04-29T13:37:22;7.63;;;2.58;;
65368;SDS011;51970;53.484;49.488;2023-04-29T13:39:55;7.72;;;2.63;;
65368;SDS011;51970;53.484;49.488;2023-04-29T13:42:24;38.67;;;3.22;;
65368;SDS011;51970;53.484;49.488;2023-04-29T13:44:54;9.70;;;2.80;;
65368;SDS011;51970;53.484;49.488;2023-04-29T13:47:25;12.50;;;3.25;;
65368;SDS011;51970;53.484;49.488;2023-04-29T13:50:08;7.28;;;2.83;;
65368;SDS011;51970;53.484;49.488;2023-04-29T13:52:39;10.07;;;3.08;;
65368;SDS011;51970;53.484;49.488;2023-04-29T13:56:01;10.52;;;2.85;;
65368;SDS011;51970;53.484;49.488;2023-04-29T13:58:34;12.32;;;3.38;;
65368;SDS011;51970;53.484;49.488;2023-04-29T14:01:06;9.07;;;2.70;;
65368;SDS011;51970;53.484;49.488;2023-04-29T14:03:48;10.38;;;3.15;;
65368;SDS011;51970;53.484;49.488;2023-04-29T14:06:43;10.63;;;3.17;;
65368;SDS011;51970;53.484;49.488;2023-04-29T14:09:33;13.52;;;2.65;;
65368;SDS011;51970;53.484;49.488;2023-04-29T14:12:04;12.00;;;3.70;;
65368;SDS011;51970;53.484;49.488;2023-04-29T14:14:47;7.40;;;3.08;;
65368;SDS011;51970;53.484;49.488;2023-04-29T14:17:20;11.13;;;3.35;;
65368;SDS011;51970;53.484;49.488;2023-04-29T14:19:58;8.32;;;2.88;;
65368;SDS011;51970;53.484;49.488;2023-04-29T14:22:33;11.65;;;3.40;;
65368;SDS011;51970;53.484;49.488;2023-04-29T14:25:25;8.90;;;2.67;;
65368;SDS011;51970;53.484;49.488;2023-04-29T14:27:52;11.95;;;2.17;;
65368;SDS011;51970;53.484;49.488;2023-04-29T14:30:27;7.15;;;3.13;;
65368;SDS011;51970;53.484;49.488;2023-04-29T14:33:16;10.15;;;2.47;;
65368;SDS011;51970;53.484;49.488;2023-04-29T14:36:24;9.90;;;2.83;;
65368;SDS011;51970;53.484;49.488;2023-04-29T14:39:01;11.77;;;3.25;;
65368;SDS011;51970;53.484;49.488;2023-04-29T14:41:28;12.57;;;3.08;;
65368;SDS011;51970;53.484;49.488;2023-04-29T14:44:08;8.20;;;2.53;;
65368;SDS011;51970;53.484;49.488;2023-04-29T14:46:38;8.98;;;3.22;;
65368;SDS011;51970;53.484;49.488;2023-04-29T14:49:24;7.93;;;3.25;;
65368;SDS011;51970;53.484;49.488;2023-04-29T14:51:55;10.43;;;3.05;;
65368;SDS011;51970;53.484;49.488;2023-04-29T14:54:23;13.55;;;3.03;;
65368;SDS011;51970;53.484;49.488;2023-04-29T14:57:01;9.38;;;3.58;;
65368;SDS011;51970;53.484;49.488;2023-04-29T14:59:27;17.30;;;5.05;;
65368;SDS011;51970;53.484;49.488;2023-04-29T15:01:55;11.57;;;3.80;;
65368;SDS011;51970;53.484;49.488;2023-04-29T15:04:40;20.63;;;3.78;;
65368;SDS011;51970;53.484;49.488;2023-04-29T15:07:15;15.55;;;4.88;;
65368;SDS011;51970;53.484;49.488;2023-04-29T15:09:44;11.55;;;3.80;;
65368;SDS011;51970;53.484;49.488;2023-04-29T15:13:06;17.83;;;5.60;;
65368;SDS011;51970;53.484;49.488;2023-04-29T15:15:43;13.40;;;3.42;;
65368;SDS011;51970;53.484;49.488;2023-04-29T15:18:20;20.40;;;4.57;;
65368;SDS011;51970;53.484;49.488;2023-04-29T15:20:51;11.75;;;4.50;;
65368;SDS011;51970;53.484;49.488;2023-04-29T15:23:24;12.00;;;4.60;;
65368;SDS011;51970;53.484;49.488;2023-04-29T15:29:01;15.00;;;5.50;;
65368;SDS011;51970;53.484;49.488;2023-04-29T15:31:44;20.05;;;4.82;;
65368;SDS011;51970;53.484;49.488;2023-04-29T15:34:21;13.63;;;5.13;;
65368;SDS011;51970;53.484;49.488;2023-04-29T15:36:58;23.45;;;6.50;;
65368;SDS011;51970;53.484;49.488;2023-04-29T15:39:30;17.00;;;6.22;;
65368;SDS011;51970;53.484;49.488;2023-04-29T15:42:24;24.00;;;6.53;;
65368;SDS011;51970;53.484;49.488;2023-04-29T15:44:56;23.27;;;5.25;;
65368;SDS011;51970;53.484;49.488;2023-04-29T15:47:22;17.80;;;6.43;;
65368;SDS011;51970;53.484;49.488;2023-04-29T15:49:52;26.25;;;6.07;;
65368;SDS011;51970;53.484;49.488;2023-04-29T15:52:39;30.30;;;5.95;;